createdAt,value
2017-08-20T00:00:19.323Z,88.60
2017-08-20T00:02:47.072Z,88.50
2017-08-20T00:05:14.821Z,88.70
2017-08-20T00:07:42.462Z,88.90
2017-08-20T00:10:10.097Z,89.00
2017-08-20T00:12:37.870Z,89.40
2017-08-20T00:15:05.501Z,89.40
2017-08-20T00:17:33.162Z,89.40
2017-08-20T00:20:00.894Z,89.50
2017-08-20T00:22:28.643Z,89.60
2017-08-20T00:24:56.388Z,89.60
2017-08-20T00:27:24.137Z,89.40
2017-08-20T00:29:51.883Z,89.50
2017-08-20T00:32:19.631Z,88.80
2017-08-20T00:34:47.331Z,88.50
2017-08-20T00:37:15.023Z,88.50
2017-08-20T00:39:42.768Z,88.70
2017-08-20T00:42:10.490Z,88.90
2017-08-20T00:44:38.163Z,89.10
2017-08-20T00:47:05.847Z,89.40
2017-08-20T00:49:34.068Z,89.20
2017-08-20T00:52:01.714Z,89.20
2017-08-20T00:54:29.462Z,89.20
2017-08-20T00:56:57.206Z,89.30
2017-08-20T00:59:24.858Z,88.90
2017-08-20T01:01:52.599Z,88.50
2017-08-20T01:04:20.293Z,88.70
2017-08-20T01:06:47.933Z,88.80
2017-08-20T01:09:15.640Z,88.60
2017-08-20T01:11:43.343Z,88.30
2017-08-20T01:14:10.969Z,88.60
2017-08-20T01:16:38.674Z,88.90
2017-08-20T01:19:06.357Z,90.40
2017-08-20T01:21:34.067Z,91.00
2017-08-20T01:24:01.709Z,92.20
2017-08-20T01:26:29.561Z,93.20
2017-08-20T01:28:57.514Z,92.90
2017-08-20T01:31:25.150Z,92.70
2017-08-20T01:33:52.848Z,92.90
2017-08-20T01:36:20.549Z,93.30
2017-08-20T01:38:48.296Z,93.10
2017-08-20T01:41:16.046Z,93.70
2017-08-20T01:43:43.687Z,92.70
2017-08-20T01:46:11.332Z,91.60
2017-08-20T01:48:39.083Z,91.50
2017-08-20T01:51:06.829Z,92.30
2017-08-20T01:53:34.478Z,92.10
2017-08-20T01:56:02.324Z,91.40
2017-08-20T01:58:29.953Z,91.00
2017-08-20T02:00:57.614Z,91.00
2017-08-20T02:03:25.361Z,90.60
2017-08-20T02:05:53.004Z,89.70
2017-08-20T02:08:20.637Z,90.10
2017-08-20T02:10:48.329Z,89.90
2017-08-20T02:13:15.958Z,90.00
2017-08-20T02:15:43.686Z,90.20
2017-08-20T02:18:11.433Z,90.50
2017-08-20T02:20:39.082Z,90.40
2017-08-20T02:23:06.828Z,89.40
2017-08-20T02:25:34.523Z,90.00
2017-08-20T02:28:02.221Z,90.50
2017-08-20T02:30:29.864Z,90.60
2017-08-20T02:32:57.612Z,91.30
2017-08-20T02:35:25.361Z,89.30
2017-08-20T02:37:53.106Z,89.40
2017-08-20T02:40:20.854Z,89.40
2017-08-20T02:42:48.600Z,88.20
2017-08-20T02:45:16.348Z,88.10
2017-08-20T02:47:44.095Z,88.70
2017-08-20T02:50:11.843Z,88.70
2017-08-20T02:52:39.594Z,89.10
2017-08-20T02:55:07.291Z,89.00
2017-08-20T02:57:34.928Z,89.30
2017-08-20T03:00:02.629Z,89.70
2017-08-20T03:02:30.376Z,89.70
2017-08-20T03:04:58.019Z,89.30
2017-08-20T03:07:25.768Z,89.20
2017-08-20T03:09:53.474Z,88.70
2017-08-20T03:12:21.111Z,88.70
2017-08-20T03:14:48.804Z,88.60
2017-08-20T03:17:16.556Z,89.00
2017-08-20T03:19:44.190Z,89.70
2017-08-20T03:22:11.839Z,89.00
2017-08-20T03:24:39.537Z,89.00
2017-08-20T03:27:07.171Z,89.10
2017-08-20T03:29:34.880Z,89.40
2017-08-20T03:32:02.573Z,88.90
2017-08-20T03:34:30.209Z,89.20
2017-08-20T03:36:57.966Z,89.10
2017-08-20T03:39:25.791Z,90.20
2017-08-20T03:41:53.552Z,89.60
2017-08-20T03:44:21.261Z,89.90
2017-08-20T03:46:49.033Z,90.50
2017-08-20T03:49:16.755Z,90.20
2017-08-20T03:51:44.502Z,90.00
2017-08-20T03:54:12.280Z,90.00
2017-08-20T03:56:39.922Z,90.20
2017-08-20T03:59:07.549Z,89.90
2017-08-20T04:01:35.390Z,90.10
2017-08-20T04:04:03.036Z,90.50
2017-08-20T04:06:30.781Z,91.10
2017-08-20T04:08:58.465Z,90.30
2017-08-20T04:11:26.175Z,90.60
2017-08-20T04:13:53.818Z,90.50
2017-08-20T04:16:21.497Z,90.70
2017-08-20T04:18:49.210Z,90.90
2017-08-20T04:21:16.959Z,91.10
2017-08-20T04:23:44.705Z,90.80
2017-08-20T04:26:12.454Z,90.70
2017-08-20T04:28:40.099Z,90.80
2017-08-20T04:31:07.786Z,90.50
2017-08-20T04:33:35.491Z,90.90
2017-08-20T04:36:03.118Z,90.50
2017-08-20T04:38:30.883Z,90.20
2017-08-20T04:40:58.630Z,90.30
2017-08-20T04:43:26.261Z,90.50
2017-08-20T04:45:53.954Z,90.40
2017-08-20T04:48:21.585Z,90.20
2017-08-20T04:50:49.311Z,90.20
2017-08-20T04:53:17.059Z,90.10
2017-08-20T04:55:44.704Z,90.20
2017-08-20T04:58:12.337Z,90.20
2017-08-20T05:00:40.046Z,90.30
2017-08-20T05:03:07.690Z,90.30
2017-08-20T05:05:35.387Z,90.50
2017-08-20T05:08:03.071Z,90.30
2017-08-20T05:10:30.779Z,90.30
2017-08-20T05:12:58.420Z,89.80
2017-08-20T05:15:26.171Z,89.60
2017-08-20T05:17:53.801Z,89.60
2017-08-20T05:20:21.459Z,89.40
2017-08-20T05:22:49.319Z,88.60
2017-08-20T05:25:17.059Z,88.90
2017-08-20T05:27:44.702Z,89.60
2017-08-20T05:30:12.449Z,88.80
2017-08-20T05:32:40.087Z,87.50
2017-08-20T05:35:07.753Z,86.60
2017-08-20T05:37:35.446Z,85.70
2017-08-20T05:40:03.090Z,84.80
2017-08-20T05:42:30.749Z,85.60
2017-08-20T05:44:58.525Z,84.20
2017-08-20T05:47:26.272Z,84.40
2017-08-20T05:49:53.916Z,83.90
2017-08-20T05:52:21.665Z,83.30
2017-08-20T05:54:49.410Z,83.00
2017-08-20T05:57:17.070Z,80.70
2017-08-20T05:59:44.763Z,80.30
2017-08-20T06:02:12.448Z,80.50
2017-08-20T06:04:40.092Z,80.30
2017-08-20T06:07:07.882Z,79.80
2017-08-20T06:09:35.531Z,78.70
2017-08-20T06:12:03.185Z,78.90
2017-08-20T06:14:30.981Z,79.20
2017-08-20T06:16:59.037Z,78.20
2017-08-20T06:19:26.717Z,77.00
2017-08-20T06:21:54.427Z,76.70
2017-08-20T06:24:22.068Z,77.10
2017-08-20T06:26:49.717Z,78.00
2017-08-20T06:29:17.566Z,77.10
2017-08-20T06:31:45.211Z,77.40
2017-08-20T06:34:12.958Z,78.80
2017-08-20T06:36:40.646Z,75.00
2017-08-20T06:39:08.286Z,76.60
2017-08-20T06:41:36.000Z,74.20
2017-08-20T06:44:03.747Z,74.90
2017-08-20T06:46:31.377Z,74.30
2017-08-20T06:48:59.035Z,73.40
2017-08-20T06:51:26.781Z,73.80
2017-08-20T06:53:54.425Z,71.90
2017-08-20T06:56:22.175Z,71.00
2017-08-20T06:58:49.923Z,70.00
2017-08-20T07:01:17.566Z,69.50
2017-08-20T07:03:45.209Z,68.30
2017-08-20T07:06:12.958Z,67.60
2017-08-20T07:08:40.601Z,66.70
2017-08-20T07:11:08.351Z,66.20
2017-08-20T07:13:36.146Z,65.60
2017-08-20T07:16:03.848Z,66.80
2017-08-20T07:18:31.593Z,68.10
2017-08-20T07:20:59.341Z,67.20
2017-08-20T07:23:26.987Z,65.10
2017-08-20T07:25:54.630Z,64.60
2017-08-20T07:28:22.377Z,63.50
2017-08-20T07:30:50.125Z,63.70
2017-08-20T07:33:17.806Z,64.10
2017-08-20T07:35:45.619Z,64.70
2017-08-20T07:38:13.262Z,65.10
2017-08-20T07:40:40.897Z,63.10
2017-08-20T07:43:08.587Z,65.70
2017-08-20T07:45:36.303Z,63.80
2017-08-20T07:48:04.063Z,64.40
2017-08-20T07:50:31.757Z,63.50
2017-08-20T07:52:59.441Z,64.70
2017-08-20T07:55:27.083Z,64.10
2017-08-20T07:57:54.833Z,64.10
2017-08-20T08:00:22.581Z,64.30
2017-08-20T08:02:50.328Z,64.80
2017-08-20T08:05:18.046Z,65.20
2017-08-20T08:07:45.721Z,65.30
2017-08-20T08:10:13.350Z,64.80
2017-08-20T08:12:41.113Z,64.90
2017-08-20T08:15:08.758Z,65.00
2017-08-20T08:17:36.393Z,64.80
2017-08-20T08:20:04.087Z,65.30
2017-08-20T08:22:31.713Z,63.90
2017-08-20T08:24:59.440Z,64.80
2017-08-20T08:27:27.188Z,66.50
2017-08-20T08:29:54.831Z,64.40
2017-08-20T08:32:22.580Z,62.50
2017-08-20T08:34:50.337Z,63.80
2017-08-20T08:37:18.051Z,63.90
2017-08-20T08:39:45.694Z,64.50
2017-08-20T08:42:13.370Z,65.10
2017-08-20T08:44:41.110Z,65.00
2017-08-20T08:47:08.758Z,65.20
2017-08-20T08:49:36.430Z,66.10
2017-08-20T08:52:04.062Z,66.50
2017-08-20T08:54:31.697Z,67.90
2017-08-20T08:56:59.441Z,66.80
2017-08-20T08:59:27.390Z,67.50
2017-08-20T09:01:55.036Z,66.30
2017-08-20T09:04:22.783Z,67.90
2017-08-20T09:06:50.409Z,67.50
2017-08-20T09:09:18.073Z,65.60
2017-08-20T09:11:45.819Z,63.90
2017-08-20T09:14:13.567Z,62.80
2017-08-20T09:16:41.198Z,63.50
2017-08-20T09:19:08.961Z,63.40
2017-08-20T09:21:36.708Z,62.70
2017-08-20T09:24:04.461Z,64.40
2017-08-20T09:26:32.203Z,65.30
2017-08-20T09:28:59.843Z,65.40
2017-08-20T09:31:27.465Z,66.30
2017-08-20T09:33:55.146Z,65.10
2017-08-20T09:36:22.885Z,65.20
2017-08-20T09:38:50.527Z,65.20
2017-08-20T09:41:18.276Z,65.40
2017-08-20T09:43:45.906Z,67.20
2017-08-20T09:46:13.534Z,64.20
2017-08-20T09:48:41.312Z,62.10
2017-08-20T09:51:08.959Z,61.80
2017-08-20T09:53:36.604Z,59.30
2017-08-20T09:56:04.351Z,58.20
2017-08-20T09:58:33.021Z,58.60
2017-08-20T10:01:00.664Z,58.40
2017-08-20T10:03:28.361Z,58.70
2017-08-20T10:05:55.986Z,58.40
2017-08-20T10:08:23.702Z,56.90
2017-08-20T10:10:51.387Z,57.20
2017-08-20T10:13:19.094Z,57.70
2017-08-20T10:15:46.728Z,59.00
2017-08-20T10:18:14.437Z,61.10
2017-08-20T10:20:42.132Z,62.60
2017-08-20T10:23:09.879Z,63.70
2017-08-20T10:25:37.567Z,62.10
2017-08-20T10:28:05.276Z,63.80
2017-08-20T10:30:32.917Z,62.70
2017-08-20T10:33:00.664Z,62.00
2017-08-20T10:35:28.307Z,62.90
2017-08-20T10:37:55.959Z,63.70
2017-08-20T10:40:23.700Z,64.70
2017-08-20T10:42:51.374Z,62.70
2017-08-20T10:45:19.094Z,60.80
2017-08-20T10:47:46.839Z,58.90
2017-08-20T10:50:14.470Z,59.30
2017-08-20T10:52:42.128Z,59.80
2017-08-20T10:55:09.827Z,60.30
2017-08-20T10:57:37.462Z,60.40
2017-08-20T11:00:05.168Z,59.20
2017-08-20T11:02:32.850Z,61.20
2017-08-20T11:05:00.560Z,62.90
2017-08-20T11:07:28.191Z,59.90
2017-08-20T11:09:56.258Z,60.40
2017-08-20T11:12:23.922Z,61.10
2017-08-20T11:14:51.593Z,61.20
2017-08-20T11:17:19.281Z,58.70
2017-08-20T11:19:46.938Z,57.30
2017-08-20T11:22:14.565Z,59.60
2017-08-20T11:24:42.257Z,59.60
2017-08-20T11:27:09.978Z,57.80
2017-08-20T11:29:37.614Z,58.30
2017-08-20T11:32:05.325Z,57.60
2017-08-20T11:34:33.016Z,60.10
2017-08-20T11:37:00.660Z,54.80
2017-08-20T11:39:28.413Z,55.70
2017-08-20T11:41:56.155Z,57.40
2017-08-20T11:44:23.789Z,53.20
2017-08-20T11:46:51.458Z,52.80
2017-08-20T11:49:19.192Z,55.60
2017-08-20T11:51:46.836Z,55.70
2017-08-20T11:54:14.583Z,55.00
2017-08-20T11:56:42.228Z,55.30
2017-08-20T11:59:09.976Z,57.00
2017-08-20T12:01:37.726Z,54.20
2017-08-20T12:04:05.475Z,53.60
2017-08-20T12:06:33.144Z,55.70
2017-08-20T12:09:00.864Z,53.30
2017-08-20T12:11:28.491Z,52.90
2017-08-20T12:13:56.154Z,52.40
2017-08-20T12:16:23.901Z,51.20
2017-08-20T12:18:51.650Z,50.30
2017-08-20T12:21:19.395Z,48.90
2017-08-20T12:23:47.142Z,52.60
2017-08-20T12:26:14.786Z,52.90
2017-08-20T12:28:42.431Z,54.70
2017-08-20T12:31:10.126Z,53.00
2017-08-20T12:33:37.751Z,53.70
2017-08-20T12:36:05.881Z,54.20
2017-08-20T12:38:33.566Z,54.30
2017-08-20T12:41:01.273Z,55.40
2017-08-20T12:43:28.917Z,57.70
2017-08-20T12:45:56.767Z,58.00
2017-08-20T12:48:24.407Z,58.10
2017-08-20T12:50:52.161Z,58.20
2017-08-20T12:53:19.852Z,60.50
2017-08-20T12:55:47.486Z,57.40
2017-08-20T12:58:15.125Z,55.40
2017-08-20T13:00:42.921Z,56.30
2017-08-20T13:03:10.553Z,55.70
2017-08-20T13:05:38.235Z,55.80
2017-08-20T13:08:05.984Z,57.50
2017-08-20T13:10:33.617Z,55.70
2017-08-20T13:13:01.255Z,56.10
2017-08-20T13:15:29.018Z,57.20
2017-08-20T13:17:56.654Z,56.40
2017-08-20T13:20:24.307Z,56.40
2017-08-20T13:22:51.991Z,55.30
2017-08-20T13:25:19.629Z,57.90
2017-08-20T13:27:47.344Z,57.60
2017-08-20T13:30:15.126Z,56.30
2017-08-20T13:32:42.838Z,53.30
2017-08-20T13:35:10.476Z,54.30
2017-08-20T13:37:38.234Z,53.40
2017-08-20T13:40:05.865Z,52.80
2017-08-20T13:42:33.500Z,52.60
2017-08-20T13:45:01.190Z,50.70
2017-08-20T13:47:28.916Z,50.50
2017-08-20T13:49:56.662Z,50.80
2017-08-20T13:52:24.410Z,52.50
2017-08-20T13:54:52.054Z,52.30
2017-08-20T13:57:19.801Z,50.40
2017-08-20T13:59:47.510Z,49.50
2017-08-20T14:02:15.153Z,49.80
2017-08-20T14:04:42.782Z,50.30
2017-08-20T14:07:10.453Z,50.20
2017-08-20T14:09:38.082Z,50.20
2017-08-20T14:12:05.721Z,49.60
2017-08-20T14:14:33.522Z,52.00
2017-08-20T14:17:01.158Z,51.50
2017-08-20T14:19:28.812Z,52.80
2017-08-20T14:21:56.515Z,51.90
2017-08-20T14:24:24.186Z,53.00
2017-08-20T14:26:51.850Z,53.70
2017-08-20T14:29:19.697Z,54.40
2017-08-20T14:31:47.345Z,54.20
2017-08-20T14:34:15.090Z,55.70
2017-08-20T14:36:42.774Z,54.80
2017-08-20T14:39:10.481Z,54.40
2017-08-20T14:41:38.128Z,54.80
2017-08-20T14:44:05.822Z,55.10
2017-08-20T14:46:33.520Z,51.60
2017-08-20T14:49:01.158Z,50.60
2017-08-20T14:51:28.850Z,51.60
2017-08-20T14:53:56.485Z,50.20
2017-08-20T14:56:24.201Z,50.40
2017-08-20T14:58:51.951Z,49.40
2017-08-20T15:01:19.579Z,52.50
2017-08-20T15:03:47.206Z,54.10
2017-08-20T15:06:14.908Z,54.70
2017-08-20T15:08:42.630Z,54.90
2017-08-20T15:11:10.376Z,55.20
2017-08-20T15:13:38.129Z,55.30
2017-08-20T15:16:05.763Z,55.30
2017-08-20T15:18:33.402Z,57.60
2017-08-20T15:21:01.109Z,57.20
2017-08-20T15:23:28.809Z,55.30
2017-08-20T15:25:56.556Z,57.70
2017-08-20T15:28:24.303Z,58.20
2017-08-20T15:30:51.977Z,59.20
2017-08-20T15:33:19.694Z,58.20
2017-08-20T15:35:47.390Z,58.80
2017-08-20T15:38:15.036Z,59.60
2017-08-20T15:40:42.678Z,60.00
2017-08-20T15:43:10.433Z,58.40
2017-08-20T15:45:38.084Z,57.70
2017-08-20T15:48:05.783Z,58.50
2017-08-20T15:50:33.473Z,57.00
2017-08-20T15:53:01.163Z,57.20
2017-08-20T15:55:28.808Z,61.50
2017-08-20T15:57:56.590Z,58.60
2017-08-20T16:00:24.225Z,59.00
2017-08-20T16:02:51.866Z,56.40
2017-08-20T16:05:19.591Z,57.00
2017-08-20T16:07:47.220Z,57.60
2017-08-20T16:10:14.858Z,56.70
2017-08-20T16:12:42.541Z,56.30
2017-08-20T16:15:10.187Z,58.20
2017-08-20T16:17:37.924Z,58.70
2017-08-20T16:20:05.674Z,57.70
2017-08-20T16:22:33.322Z,57.50
2017-08-20T16:25:01.059Z,56.70
2017-08-20T16:27:28.749Z,58.00
2017-08-20T16:29:56.451Z,58.90
2017-08-20T16:32:24.095Z,59.20
2017-08-20T16:34:51.781Z,59.00
2017-08-20T16:37:19.486Z,59.90
2017-08-20T16:39:47.131Z,58.30
2017-08-20T16:42:14.859Z,59.20
2017-08-20T16:44:42.522Z,60.90
2017-08-20T16:47:10.151Z,57.40
2017-08-20T16:49:38.023Z,57.60
2017-08-20T16:52:05.660Z,58.20
2017-08-20T16:54:33.298Z,59.30
2017-08-20T16:57:01.057Z,58.60
2017-08-20T16:59:28.805Z,57.20
2017-08-20T17:01:56.551Z,56.90
2017-08-20T17:04:24.230Z,56.90
2017-08-20T17:06:51.869Z,57.20
2017-08-20T17:09:19.588Z,57.40
2017-08-20T17:11:47.336Z,56.40
2017-08-20T17:14:15.082Z,57.50
2017-08-20T17:16:42.829Z,58.20
2017-08-20T17:19:10.514Z,58.70
2017-08-20T17:21:38.230Z,58.90
2017-08-20T17:24:05.862Z,58.00
2017-08-20T17:26:33.616Z,57.60
2017-08-20T17:29:01.255Z,58.80
2017-08-20T17:31:29.007Z,59.20
2017-08-20T17:33:56.709Z,59.60
2017-08-20T17:36:24.343Z,59.90
2017-08-20T17:38:52.045Z,59.50
2017-08-20T17:41:19.769Z,59.80
2017-08-20T17:43:47.539Z,60.60
2017-08-20T17:46:15.182Z,61.00
2017-08-20T17:48:43.038Z,61.40
2017-08-20T17:51:10.670Z,60.50
2017-08-20T17:53:38.403Z,60.30
2017-08-20T17:56:06.095Z,61.20
2017-08-20T17:58:33.730Z,62.10
2017-08-20T18:01:01.466Z,64.40
2017-08-20T18:03:29.162Z,63.90
2017-08-20T18:05:56.790Z,64.60
2017-08-20T18:08:24.690Z,65.20
2017-08-20T18:10:52.427Z,65.70
2017-08-20T18:13:20.068Z,65.50
2017-08-20T18:15:47.706Z,65.60
2017-08-20T18:18:15.386Z,66.10
2017-08-20T18:20:43.032Z,65.60
2017-08-20T18:23:10.678Z,65.30
2017-08-20T18:25:38.529Z,66.30
2017-08-20T18:28:06.296Z,67.00
2017-08-20T18:30:34.023Z,66.80
2017-08-20T18:33:01.769Z,67.20
2017-08-20T18:35:29.518Z,67.00
2017-08-20T18:37:57.180Z,67.70
2017-08-20T18:40:24.914Z,68.40
2017-08-20T18:42:52.567Z,68.70
2017-08-20T18:45:20.213Z,69.10
2017-08-20T18:47:47.913Z,69.80
2017-08-20T18:50:15.593Z,70.50
2017-08-20T18:52:43.361Z,70.40
2017-08-20T18:55:11.139Z,71.90
2017-08-20T18:57:38.786Z,71.40
2017-08-20T19:00:06.442Z,71.00
2017-08-20T19:02:34.166Z,71.50
2017-08-20T19:05:02.534Z,71.30
2017-08-20T19:07:30.233Z,71.50
2017-08-20T19:09:57.980Z,70.90
2017-08-20T19:12:25.626Z,72.00
2017-08-20T19:14:53.262Z,71.80
2017-08-20T19:17:21.017Z,71.90
2017-08-20T19:19:48.765Z,72.30
2017-08-20T19:22:16.427Z,72.70
2017-08-20T19:24:44.138Z,72.70
2017-08-20T19:27:11.782Z,72.50
2017-08-20T19:29:39.571Z,72.20
2017-08-20T19:32:07.296Z,72.20
2017-08-20T19:34:35.048Z,72.70
2017-08-20T19:37:02.793Z,72.50
2017-08-20T19:39:30.743Z,73.20
2017-08-20T19:41:58.491Z,73.30
2017-08-20T19:44:26.240Z,72.90
2017-08-20T19:46:54.394Z,72.80
2017-08-20T19:49:22.035Z,72.80
2017-08-20T19:51:49.689Z,72.80
2017-08-20T19:54:17.417Z,73.30
2017-08-20T19:56:46.020Z,73.70
2017-08-20T19:59:13.744Z,74.10
2017-08-20T20:01:41.450Z,74.70
2017-08-20T20:04:09.139Z,75.00
2017-08-20T20:06:36.887Z,75.50
2017-08-20T20:09:04.654Z,75.30
2017-08-20T20:11:32.381Z,76.10
2017-08-20T20:14:00.033Z,76.40
2017-08-20T20:16:27.776Z,76.00
2017-08-20T20:18:55.438Z,76.30
2017-08-20T20:21:23.078Z,76.10
2017-08-20T20:23:50.790Z,75.70
2017-08-20T20:26:18.435Z,75.30
2017-08-20T20:28:46.103Z,75.40
2017-08-20T20:31:13.830Z,75.80
2017-08-20T20:33:41.482Z,76.30
2017-08-20T20:36:09.342Z,77.00
2017-08-20T20:38:37.049Z,77.40
2017-08-20T20:41:04.702Z,77.50
2017-08-20T20:43:32.360Z,78.00
2017-08-20T20:46:00.077Z,77.80
2017-08-20T20:48:27.777Z,77.90
2017-08-20T20:50:55.423Z,77.80
2017-08-20T20:53:23.163Z,76.80
2017-08-20T20:55:50.911Z,76.60
2017-08-20T20:58:18.560Z,77.30
2017-08-20T21:00:46.302Z,78.00
2017-08-20T21:03:13.971Z,78.40
2017-08-20T21:05:41.694Z,78.40
2017-08-20T21:08:09.397Z,79.50
2017-08-20T21:10:37.034Z,79.90
2017-08-20T21:13:04.733Z,80.50
2017-08-20T21:15:32.548Z,79.80
2017-08-20T21:18:00.228Z,80.00
2017-08-20T21:20:27.978Z,80.10
2017-08-20T21:22:55.725Z,79.80
2017-08-20T21:25:23.365Z,80.20
2017-08-20T21:27:51.017Z,81.00
2017-08-20T21:30:18.759Z,80.80
2017-08-20T21:32:46.403Z,83.10
2017-08-20T21:35:14.042Z,82.10
2017-08-20T21:37:41.733Z,81.30
2017-08-20T21:40:09.443Z,80.40
2017-08-20T21:42:37.191Z,80.60
2017-08-20T21:45:04.940Z,79.80
2017-08-20T21:47:32.684Z,80.30
2017-08-20T21:50:00.432Z,80.80
2017-08-20T21:52:28.182Z,80.80
2017-08-20T21:54:55.826Z,81.20
2017-08-20T21:57:23.470Z,81.40
2017-08-20T21:59:51.317Z,81.80
2017-08-20T22:02:19.064Z,81.40
2017-08-20T22:04:46.811Z,81.40
2017-08-20T22:07:14.764Z,81.40
2017-08-20T22:09:42.407Z,81.70
2017-08-20T22:12:10.046Z,82.20
2017-08-20T22:14:37.738Z,82.50
2017-08-20T22:17:05.375Z,82.70
2017-08-20T22:19:33.092Z,82.40
2017-08-20T22:22:00.840Z,83.20
2017-08-20T22:24:28.587Z,83.50
2017-08-20T22:26:56.231Z,82.20
2017-08-20T22:29:23.980Z,82.30
2017-08-20T22:31:51.657Z,82.50
2017-08-20T22:34:19.371Z,83.30
2017-08-20T22:36:47.058Z,83.60
2017-08-20T22:39:14.689Z,83.50
2017-08-20T22:41:42.322Z,83.40
2017-08-20T22:44:10.029Z,83.30
2017-08-20T22:46:37.658Z,83.70
2017-08-20T22:49:05.344Z,83.40
2017-08-20T22:51:33.114Z,83.20
2017-08-20T22:54:00.839Z,83.00
2017-08-20T22:56:28.483Z,83.10
2017-08-20T22:58:56.230Z,83.40
2017-08-20T23:01:23.878Z,83.50
2017-08-20T23:03:51.618Z,83.50
2017-08-20T23:06:19.313Z,84.10
2017-08-20T23:08:46.962Z,83.70
2017-08-20T23:11:14.595Z,83.70
2017-08-20T23:13:42.303Z,82.80
2017-08-20T23:16:10.049Z,83.60
2017-08-20T23:18:37.718Z,83.70
2017-08-20T23:21:05.410Z,83.50
2017-08-20T23:23:33.050Z,83.40
2017-08-20T23:26:00.690Z,83.60
2017-08-20T23:28:28.482Z,82.90
2017-08-20T23:30:56.228Z,83.00
2017-08-20T23:33:23.862Z,82.70
2017-08-20T23:35:51.722Z,82.80
2017-08-20T23:38:19.470Z,82.50
2017-08-20T23:40:47.111Z,82.30
2017-08-20T23:43:14.862Z,82.20
2017-08-20T23:45:42.507Z,82.50
2017-08-20T23:48:10.158Z,83.10
2017-08-20T23:50:37.901Z,83.10
2017-08-20T23:53:05.535Z,83.10
2017-08-20T23:55:33.191Z,83.50
2017-08-20T23:58:00.885Z,83.50
